createdAt,value
2022-12-23T00:00:08.220Z,9.26
2022-12-23T00:00:18.491Z,9.24
2022-12-23T00:00:28.741Z,9.26
2022-12-23T00:00:39.002Z,9.26
2022-12-23T00:00:49.261Z,9.24
2022-12-23T00:00:59.560Z,9.24
2022-12-23T00:01:09.807Z,9.22
2022-12-23T00:01:20.110Z,9.24
2022-12-23T00:01:30.439Z,9.24
2022-12-23T00:01:40.839Z,9.22
2022-12-23T00:01:51.304Z,9.24
2022-12-23T00:02:01.433Z,9.24
2022-12-23T00:02:11.878Z,9.24
2022-12-23T00:02:22.098Z,9.24
2022-12-23T00:02:32.347Z,9.26
2022-12-23T00:02:42.692Z,9.22
2022-12-23T00:02:53.067Z,9.26
2022-12-23T00:03:03.560Z,9.26
2022-12-23T00:03:13.683Z,9.22
2022-12-23T00:03:23.943Z,9.24
2022-12-23T00:03:34.184Z,9.24
2022-12-23T00:03:44.503Z,9.24
2022-12-23T00:03:54.620Z,9.24
2022-12-23T00:04:04.968Z,9.24
2022-12-23T00:04:15.298Z,9.26
2022-12-23T00:04:25.694Z,9.24
2022-12-23T00:04:35.832Z,9.24
2022-12-23T00:04:46.075Z,9.26
2022-12-23T00:04:56.365Z,9.24
2022-12-23T00:05:06.623Z,9.26
2022-12-23T00:05:16.877Z,9.22
2022-12-23T00:05:30.188Z,9.22
2022-12-23T00:05:38.597Z,9.24
2022-12-23T00:05:47.620Z,9.22
2022-12-23T00:05:57.886Z,9.26
2022-12-23T00:06:08.139Z,9.22
2022-12-23T00:06:18.425Z,9.22
2022-12-23T00:06:28.691Z,9.24
2022-12-23T00:06:38.966Z,9.22
2022-12-23T00:06:49.220Z,9.21
2022-12-23T00:06:59.472Z,9.24
2022-12-23T00:07:09.736Z,9.24
2022-12-23T00:07:20.003Z,9.24
2022-12-23T00:07:30.256Z,9.22
2022-12-23T00:07:40.520Z,9.22
2022-12-23T00:07:50.792Z,9.26
2022-12-23T00:08:01.062Z,9.22
2022-12-23T00:08:11.339Z,9.22
2022-12-23T00:08:21.598Z,9.24
2022-12-23T00:08:31.852Z,9.22
2022-12-23T00:08:42.110Z,9.22
2022-12-23T00:08:52.397Z,9.24
2022-12-23T00:09:02.653Z,9.22
2022-12-23T00:09:12.926Z,9.21
2022-12-23T00:09:23.198Z,9.24
2022-12-23T00:09:33.483Z,9.22
2022-12-23T00:09:43.734Z,9.21
2022-12-23T00:09:53.992Z,9.22
2022-12-23T00:10:04.255Z,9.21
2022-12-23T00:10:14.512Z,9.22
2022-12-23T00:10:24.853Z,9.24
2022-12-23T00:10:35.116Z,9.24
2022-12-23T00:10:45.344Z,9.22
2022-12-23T00:10:55.620Z,9.24
2022-12-23T00:11:05.872Z,9.21
2022-12-23T00:11:16.139Z,9.24
2022-12-23T00:11:26.438Z,9.22
2022-12-23T00:11:36.680Z,9.24
2022-12-23T00:11:46.945Z,9.24
2022-12-23T00:11:57.208Z,9.22
2022-12-23T00:12:07.478Z,9.21
2022-12-23T00:12:17.742Z,9.22
2022-12-23T00:12:28.001Z,9.21
2022-12-23T00:12:38.270Z,9.21
2022-12-23T00:12:48.530Z,9.21
2022-12-23T00:12:58.794Z,9.21
2022-12-23T00:13:09.073Z,9.22
2022-12-23T00:13:19.333Z,9.24
2022-12-23T00:13:29.611Z,9.22
2022-12-23T00:13:39.880Z,9.22
2022-12-23T00:13:50.135Z,9.24
2022-12-23T00:14:00.399Z,9.22
2022-12-23T00:14:16.318Z,9.22
2022-12-23T00:14:22.243Z,9.24
2022-12-23T00:14:31.219Z,9.24
2022-12-23T00:14:41.482Z,9.22
2022-12-23T00:14:51.748Z,9.24
2022-12-23T00:15:02.014Z,9.21
2022-12-23T00:15:12.279Z,9.22
2022-12-23T00:15:22.581Z,9.24
2022-12-23T00:15:32.815Z,9.21
2022-12-23T00:15:43.071Z,9.22
2022-12-23T00:15:53.355Z,9.22
2022-12-23T00:16:03.698Z,9.24
2022-12-23T00:16:14.011Z,9.21
2022-12-23T00:16:24.357Z,9.21
2022-12-23T00:16:34.673Z,9.21
2022-12-23T00:16:45.025Z,9.21
2022-12-23T00:16:55.349Z,9.21
2022-12-23T00:17:17.555Z,9.22
2022-12-23T00:17:22.774Z,9.21
2022-12-23T00:17:27.425Z,9.21
2022-12-23T00:17:36.791Z,9.22
2022-12-23T00:17:47.057Z,9.21
2022-12-23T00:17:57.320Z,9.21
2022-12-23T00:18:07.629Z,9.19
2022-12-23T00:18:17.863Z,9.19
2022-12-23T00:18:28.125Z,9.22
2022-12-23T00:18:38.383Z,9.21
2022-12-23T00:18:48.663Z,9.22
2022-12-23T00:18:58.926Z,9.21
2022-12-23T00:19:09.184Z,9.21
2022-12-23T00:19:19.455Z,9.21
2022-12-23T00:19:29.736Z,9.22
2022-12-23T00:19:39.985Z,9.21
2022-12-23T00:19:50.245Z,9.22
2022-12-23T00:20:00.510Z,9.21
2022-12-23T00:20:10.771Z,9.19
2022-12-23T00:20:21.033Z,9.18
2022-12-23T00:20:31.328Z,9.21
2022-12-23T00:20:41.573Z,9.19
2022-12-23T00:20:51.857Z,9.19
2022-12-23T00:21:08.124Z,9.21
2022-12-23T00:21:13.315Z,9.19
2022-12-23T00:21:22.711Z,9.21
2022-12-23T00:21:32.973Z,9.19
2022-12-23T00:21:43.245Z,9.21
2022-12-23T00:21:53.500Z,9.21
2022-12-23T00:22:03.811Z,9.19
2022-12-23T00:22:14.047Z,9.21
2022-12-23T00:22:24.322Z,9.19
2022-12-23T00:22:34.578Z,9.21
2022-12-23T00:22:44.843Z,9.19
2022-12-23T00:22:55.128Z,9.21
2022-12-23T00:23:05.399Z,9.19
2022-12-23T00:23:15.656Z,9.21
2022-12-23T00:23:25.959Z,9.21
2022-12-23T00:23:36.211Z,9.19
2022-12-23T00:23:46.479Z,9.19
2022-12-23T00:23:56.745Z,9.22
2022-12-23T00:24:07.012Z,9.19
2022-12-23T00:24:17.280Z,9.19
2022-12-23T00:24:27.536Z,9.21
2022-12-23T00:24:37.800Z,9.19
2022-12-23T00:24:48.081Z,9.19
2022-12-23T00:24:58.327Z,9.19
2022-12-23T00:25:08.606Z,9.19
2022-12-23T00:25:18.854Z,9.19
2022-12-23T00:25:29.150Z,9.19
2022-12-23T00:25:39.402Z,9.19
2022-12-23T00:25:49.752Z,9.19
2022-12-23T00:26:00.029Z,9.19
2022-12-23T00:26:10.280Z,9.19
2022-12-23T00:26:20.546Z,9.19
2022-12-23T00:26:30.823Z,9.16
2022-12-23T00:26:41.084Z,9.18
2022-12-23T00:26:51.346Z,9.18
2022-12-23T00:27:01.673Z,9.19
2022-12-23T00:27:11.953Z,9.19
2022-12-23T00:27:22.188Z,9.19
2022-12-23T00:27:37.381Z,9.16
2022-12-23T00:27:43.671Z,9.18
2022-12-23T00:27:53.075Z,9.21
2022-12-23T00:28:03.344Z,9.19
2022-12-23T00:28:13.607Z,9.18
2022-12-23T00:28:23.878Z,9.19
2022-12-23T00:28:34.143Z,9.18
2022-12-23T00:28:44.397Z,9.19
2022-12-23T00:28:54.674Z,9.19
2022-12-23T00:29:04.944Z,9.21
2022-12-23T00:29:15.192Z,9.18
2022-12-23T00:29:25.456Z,9.19
2022-12-23T00:29:35.716Z,9.18
2022-12-23T00:29:45.992Z,9.19
2022-12-23T00:29:56.245Z,9.19
2022-12-23T00:30:06.509Z,9.18
2022-12-23T00:30:16.771Z,9.18
2022-12-23T00:30:27.074Z,9.18
2022-12-23T00:30:37.310Z,9.18
2022-12-23T00:30:47.585Z,9.15
2022-12-23T00:30:57.866Z,9.18
2022-12-23T00:31:08.118Z,9.16
2022-12-23T00:31:18.446Z,9.16
2022-12-23T00:31:28.815Z,9.18
2022-12-23T00:31:39.139Z,9.18
2022-12-23T00:31:49.444Z,9.16
2022-12-23T00:31:59.840Z,9.18
2022-12-23T00:32:10.024Z,9.19
2022-12-23T00:32:20.367Z,9.18
2022-12-23T00:32:30.618Z,9.16
2022-12-23T00:32:40.907Z,9.16
2022-12-23T00:32:51.131Z,9.18
2022-12-23T00:33:01.411Z,9.16
2022-12-23T00:33:11.679Z,9.16
2022-12-23T00:33:21.946Z,9.16
2022-12-23T00:33:32.209Z,9.15
2022-12-23T00:33:42.475Z,9.16
2022-12-23T00:33:52.735Z,9.15
2022-12-23T00:34:03.015Z,9.15
2022-12-23T00:34:13.301Z,9.15
2022-12-23T00:34:23.555Z,9.18
2022-12-23T00:34:33.825Z,9.18
2022-12-23T00:34:44.079Z,9.16
2022-12-23T00:34:54.362Z,9.16
2022-12-23T00:35:04.605Z,9.16
2022-12-23T00:35:14.865Z,9.16
2022-12-23T00:35:25.138Z,9.15
2022-12-23T00:35:35.427Z,9.15
2022-12-23T00:35:45.730Z,9.15
2022-12-23T00:35:56.115Z,9.15
2022-12-23T00:36:06.436Z,9.15
2022-12-23T00:36:16.715Z,9.15
2022-12-23T00:36:27.074Z,9.13
2022-12-23T00:36:37.521Z,9.15
2022-12-23T00:36:47.797Z,9.15
2022-12-23T00:36:58.079Z,9.15
2022-12-23T00:37:08.325Z,9.15
2022-12-23T00:37:18.608Z,9.16
2022-12-23T00:37:28.885Z,9.13
2022-12-23T00:37:39.127Z,9.15
2022-12-23T00:37:49.393Z,9.16
2022-12-23T00:37:59.661Z,9.15
2022-12-23T00:38:09.939Z,9.13
2022-12-23T00:38:20.212Z,9.15
2022-12-23T00:38:30.456Z,9.13
2022-12-23T00:38:40.719Z,9.16
2022-12-23T00:38:50.983Z,9.15
2022-12-23T00:39:01.279Z,9.13
2022-12-23T00:39:11.532Z,9.13
2022-12-23T00:39:21.778Z,9.13
2022-12-23T00:39:32.048Z,9.15
2022-12-23T00:39:42.331Z,9.15
2022-12-23T00:39:55.083Z,9.13
2022-12-23T00:40:06.715Z,9.13
2022-12-23T00:40:13.134Z,9.15
2022-12-23T00:40:23.406Z,9.13
2022-12-23T00:40:33.652Z,9.13
2022-12-23T00:40:44.077Z,9.12
2022-12-23T00:40:54.292Z,9.15
2022-12-23T00:41:04.555Z,9.13
2022-12-23T00:41:14.838Z,9.15
2022-12-23T00:41:25.078Z,9.12
2022-12-23T00:41:35.347Z,9.15
2022-12-23T00:41:45.603Z,9.13
2022-12-23T00:41:55.939Z,9.13
2022-12-23T00:42:06.183Z,9.13
2022-12-23T00:42:16.444Z,9.15
2022-12-23T00:42:26.689Z,9.15
2022-12-23T00:42:36.973Z,9.13
2022-12-23T00:42:47.226Z,9.13
2022-12-23T00:42:57.481Z,9.13
2022-12-23T00:43:07.766Z,9.12
2022-12-23T00:43:18.036Z,9.13
2022-12-23T00:43:28.294Z,9.15
2022-12-23T00:43:38.584Z,9.13
2022-12-23T00:43:48.879Z,9.13
2022-12-23T00:43:59.125Z,9.13
2022-12-23T00:44:09.417Z,9.12
2022-12-23T00:44:19.660Z,9.12
2022-12-23T00:44:29.946Z,9.12
2022-12-23T00:44:40.193Z,9.13
2022-12-23T00:44:50.470Z,9.12
2022-12-23T00:45:00.714Z,9.15
2022-12-23T00:45:10.979Z,9.12
2022-12-23T00:45:21.290Z,9.13
2022-12-23T00:45:31.625Z,9.12
2022-12-23T00:45:41.946Z,9.13
2022-12-23T00:45:52.287Z,9.13
2022-12-23T00:46:02.634Z,9.13
2022-12-23T00:46:12.981Z,9.12
2022-12-23T00:46:23.297Z,9.15
2022-12-23T00:46:33.556Z,9.11
2022-12-23T00:46:43.841Z,9.12
2022-12-23T00:46:54.087Z,9.12
2022-12-23T00:47:04.355Z,9.13
2022-12-23T00:47:14.630Z,9.12
2022-12-23T00:47:24.873Z,9.13
2022-12-23T00:47:35.169Z,9.11
2022-12-23T00:47:45.405Z,9.12
2022-12-23T00:47:55.671Z,9.12
2022-12-23T00:48:05.931Z,9.13
2022-12-23T00:48:16.220Z,9.12
2022-12-23T00:48:26.519Z,9.15
2022-12-23T00:48:36.756Z,9.13
2022-12-23T00:48:47.039Z,9.12
2022-12-23T00:48:57.291Z,9.11
2022-12-23T00:49:07.558Z,9.12
2022-12-23T00:49:17.832Z,9.11
2022-12-23T00:49:28.084Z,9.11
2022-12-23T00:49:38.404Z,9.13
2022-12-23T00:49:48.630Z,9.11
2022-12-23T00:49:58.914Z,9.12
2022-12-23T00:50:09.180Z,9.12
2022-12-23T00:50:19.450Z,9.11
2022-12-23T00:50:29.737Z,9.12
2022-12-23T00:50:39.968Z,9.13
2022-12-23T00:50:50.235Z,9.13
2022-12-23T00:51:00.503Z,9.12
2022-12-23T00:51:10.755Z,9.12
2022-12-23T00:51:21.031Z,9.12
2022-12-23T00:51:31.286Z,9.11
2022-12-23T00:51:41.576Z,9.12
2022-12-23T00:51:51.831Z,9.12
2022-12-23T00:52:02.086Z,9.12
2022-12-23T00:52:12.359Z,9.12
2022-12-23T00:52:22.631Z,9.12
2022-12-23T00:52:32.880Z,9.13
2022-12-23T00:52:43.142Z,9.11
2022-12-23T00:52:53.449Z,9.12
2022-12-23T00:53:03.681Z,9.12
2022-12-23T00:53:13.954Z,9.09
2022-12-23T00:53:24.296Z,9.12
2022-12-23T00:53:34.574Z,9.09
2022-12-23T00:53:44.820Z,9.13
2022-12-23T00:53:55.086Z,9.12
2022-12-23T00:54:05.354Z,9.12
2022-12-23T00:54:15.621Z,9.13
2022-12-23T00:54:25.880Z,9.11
2022-12-23T00:54:36.193Z,9.09
2022-12-23T00:54:46.460Z,9.11
2022-12-23T00:54:56.715Z,9.12
2022-12-23T00:55:06.963Z,9.12
2022-12-23T00:55:17.239Z,9.11
2022-12-23T00:55:27.492Z,9.11
2022-12-23T00:55:37.750Z,9.11
2022-12-23T00:55:48.066Z,9.11
2022-12-23T00:55:58.298Z,9.13
2022-12-23T00:56:08.590Z,9.11
2022-12-23T00:56:18.839Z,9.12
2022-12-23T00:56:29.104Z,9.11
2022-12-23T00:56:39.371Z,9.12
2022-12-23T00:56:49.633Z,9.09
2022-12-23T00:56:59.890Z,9.11
2022-12-23T00:57:10.200Z,9.09
2022-12-23T00:57:20.460Z,9.11
2022-12-23T00:57:30.733Z,9.11
2022-12-23T00:57:40.990Z,9.11
2022-12-23T00:57:51.277Z,9.11
2022-12-23T00:58:01.526Z,9.11
2022-12-23T00:58:11.792Z,9.11
2022-12-23T00:58:22.100Z,9.11
2022-12-23T00:58:32.349Z,9.11
2022-12-23T00:58:42.612Z,9.12
2022-12-23T00:58:52.877Z,9.11
2022-12-23T00:59:03.168Z,9.11
2022-12-23T00:59:13.403Z,9.11
2022-12-23T00:59:23.667Z,9.12
2022-12-23T00:59:33.949Z,9.11
2022-12-23T00:59:44.191Z,9.11
2022-12-23T00:59:54.453Z,9.11
2022-12-23T01:00:04.727Z,9.09
2022-12-23T01:00:15.027Z,9.12
2022-12-23T01:00:25.261Z,9.11
2022-12-23T01:00:35.529Z,9.12
2022-12-23T01:00:45.864Z,9.12
2022-12-23T01:00:56.205Z,9.09
2022-12-23T01:01:06.552Z,9.09
2022-12-23T01:01:16.954Z,9.11
2022-12-23T01:01:27.349Z,9.11
2022-12-23T01:01:37.616Z,9.11
2022-12-23T01:01:47.909Z,9.09
2022-12-23T01:01:58.157Z,9.12
2022-12-23T01:02:08.395Z,9.11
2022-12-23T01:02:18.676Z,9.11
2022-12-23T01:02:29.150Z,9.09
2022-12-23T01:02:39.347Z,9.11
2022-12-23T01:02:49.801Z,9.13
2022-12-23T01:03:00.050Z,9.11
2022-12-23T01:03:10.359Z,9.11
2022-12-23T01:03:20.483Z,9.09
2022-12-23T01:03:30.855Z,9.09
2022-12-23T01:03:41.239Z,9.11
2022-12-23T01:03:51.558Z,9.09
2022-12-23T01:04:01.802Z,9.11
2022-12-23T01:04:12.043Z,9.11
2022-12-23T01:04:22.312Z,9.12
2022-12-23T01:04:32.581Z,9.08
2022-12-23T01:04:42.902Z,9.09
2022-12-23T01:04:53.120Z,9.11
2022-12-23T01:05:03.408Z,9.09
2022-12-23T01:05:13.674Z,9.09
2022-12-23T01:05:23.911Z,9.09
2022-12-23T01:05:34.170Z,9.09
2022-12-23T01:05:44.440Z,9.08
2022-12-23T01:05:54.702Z,9.09
2022-12-23T01:06:04.981Z,9.09
2022-12-23T01:06:15.229Z,9.09
2022-12-23T01:06:25.506Z,9.11
2022-12-23T01:06:35.748Z,9.08
2022-12-23T01:06:46.015Z,9.08
2022-12-23T01:06:56.311Z,9.11
2022-12-23T01:07:06.544Z,9.08
2022-12-23T01:07:16.819Z,9.09
2022-12-23T01:07:27.068Z,9.09
2022-12-23T01:07:37.327Z,9.08
2022-12-23T01:07:47.610Z,9.08
2022-12-23T01:07:57.866Z,9.09
2022-12-23T01:08:08.105Z,9.09
2022-12-23T01:08:18.389Z,9.09
2022-12-23T01:08:28.676Z,9.09
2022-12-23T01:08:38.919Z,9.08
2022-12-23T01:08:49.200Z,9.08
2022-12-23T01:08:59.458Z,9.08
2022-12-23T01:09:09.723Z,9.09
2022-12-23T01:09:19.991Z,9.08
2022-12-23T01:09:30.249Z,9.09
2022-12-23T01:09:40.506Z,9.09
2022-12-23T01:09:50.810Z,9.08
2022-12-23T01:10:01.094Z,9.11
2022-12-23T01:10:11.319Z,9.05
2022-12-23T01:10:21.601Z,9.09
2022-12-23T01:10:31.847Z,9.08
2022-12-23T01:10:42.108Z,9.09
2022-12-23T01:10:52.419Z,9.08
2022-12-23T01:11:02.672Z,9.09
2022-12-23T01:11:12.928Z,9.08
2022-12-23T01:11:23.184Z,9.08
2022-12-23T01:11:33.482Z,9.09
2022-12-23T01:11:43.700Z,9.09
2022-12-23T01:11:53.967Z,9.09
2022-12-23T01:12:04.229Z,9.08
2022-12-23T01:12:14.519Z,9.08
2022-12-23T01:12:24.800Z,9.08
2022-12-23T01:12:35.037Z,9.08
2022-12-23T01:12:45.313Z,9.09
2022-12-23T01:12:55.638Z,9.09
2022-12-23T01:13:05.920Z,9.08
2022-12-23T01:13:16.199Z,9.09
2022-12-23T01:13:26.510Z,9.08
2022-12-23T01:13:36.763Z,9.05
2022-12-23T01:13:47.014Z,9.08
2022-12-23T01:13:57.340Z,9.09
2022-12-23T01:14:07.555Z,9.08
2022-12-23T01:14:17.874Z,9.08
2022-12-23T01:14:28.120Z,9.08
2022-12-23T01:14:38.380Z,9.05
2022-12-23T01:14:48.666Z,9.09
2022-12-23T01:14:58.907Z,9.08
2022-12-23T01:15:09.184Z,9.08
2022-12-23T01:15:19.476Z,9.08
2022-12-23T01:15:29.719Z,9.08
2022-12-23T01:15:39.977Z,9.09
2022-12-23T01:15:50.256Z,9.08
2022-12-23T01:16:00.517Z,9.08
2022-12-23T01:16:15.358Z,9.08
2022-12-23T01:16:22.277Z,9.08
2022-12-23T01:16:31.648Z,9.09
2022-12-23T01:16:41.796Z,9.08
2022-12-23T01:16:52.164Z,9.09
2022-12-23T01:17:02.465Z,9.08
2022-12-23T01:17:12.983Z,9.08
2022-12-23T01:17:23.428Z,9.09
2022-12-23T01:17:33.546Z,9.08
2022-12-23T01:17:43.789Z,9.09
2022-12-23T01:17:54.072Z,9.08
2022-12-23T01:18:04.337Z,9.08
2022-12-23T01:18:14.595Z,9.09
2022-12-23T01:18:24.865Z,9.11
2022-12-23T01:18:35.137Z,9.08
2022-12-23T01:18:45.405Z,9.09
2022-12-23T01:18:55.658Z,9.08
2022-12-23T01:19:05.912Z,9.08
2022-12-23T01:19:16.432Z,9.11
2022-12-23T01:19:26.470Z,9.08
2022-12-23T01:19:36.745Z,9.05
2022-12-23T01:19:47.003Z,9.08
2022-12-23T01:19:57.272Z,9.08
2022-12-23T01:20:07.529Z,9.05
2022-12-23T01:20:17.797Z,9.08
2022-12-23T01:20:28.080Z,9.09
2022-12-23T01:20:38.350Z,9.08
2022-12-23T01:20:48.612Z,9.08
2022-12-23T01:20:58.853Z,9.08
2022-12-23T01:21:09.120Z,9.08
2022-12-23T01:21:19.467Z,9.08
2022-12-23T01:21:29.768Z,9.08
2022-12-23T01:21:40.000Z,9.08
2022-12-23T01:21:50.271Z,9.05
2022-12-23T01:22:00.505Z,9.08
2022-12-23T01:22:10.769Z,9.08
2022-12-23T01:22:21.073Z,9.08
2022-12-23T01:22:31.357Z,9.08
2022-12-23T01:22:41.591Z,9.08
2022-12-23T01:22:51.863Z,9.05
2022-12-23T01:23:02.114Z,9.09
2022-12-23T01:23:12.383Z,9.09
2022-12-23T01:23:22.662Z,9.08
2022-12-23T01:23:32.954Z,9.08
2022-12-23T01:23:43.213Z,9.08
2022-12-23T01:23:53.505Z,9.05
2022-12-23T01:24:03.760Z,9.08
2022-12-23T01:24:14.043Z,9.05
2022-12-23T01:24:24.351Z,9.05
2022-12-23T01:24:34.585Z,9.08
2022-12-23T01:24:44.850Z,9.08
2022-12-23T01:24:55.118Z,9.08
2022-12-23T01:25:05.378Z,9.05
2022-12-23T01:25:15.638Z,9.05
2022-12-23T01:25:25.898Z,9.08
2022-12-23T01:25:36.170Z,9.08
2022-12-23T01:25:46.437Z,9.08
2022-12-23T01:25:56.712Z,9.08
2022-12-23T01:26:06.966Z,9.08
2022-12-23T01:26:17.284Z,9.08
2022-12-23T01:26:27.507Z,9.05
2022-12-23T01:26:37.763Z,9.08
2022-12-23T01:26:48.019Z,9.08
2022-12-23T01:26:58.284Z,9.08
2022-12-23T01:27:08.556Z,9.05
2022-12-23T01:27:18.811Z,9.05
2022-12-23T01:27:29.086Z,9.08
2022-12-23T01:27:39.337Z,9.08
2022-12-23T01:27:49.621Z,9.05
2022-12-23T01:27:59.912Z,9.05
2022-12-23T01:28:10.208Z,9.05
2022-12-23T01:28:20.469Z,9.05
2022-12-23T01:28:30.736Z,9.05
2022-12-23T01:28:41.023Z,9.05
2022-12-23T01:28:51.292Z,9.08
2022-12-23T01:29:01.548Z,9.08
2022-12-23T01:29:11.808Z,9.08
2022-12-23T01:29:22.246Z,9.08
2022-12-23T01:29:32.508Z,9.08
2022-12-23T01:29:42.768Z,9.05
2022-12-23T01:29:53.041Z,9.05
2022-12-23T01:30:03.298Z,9.05
2022-12-23T01:30:13.560Z,9.08
2022-12-23T01:30:23.864Z,9.08
2022-12-23T01:30:34.130Z,9.08
2022-12-23T01:30:44.406Z,9.05
2022-12-23T01:30:54.667Z,9.05
2022-12-23T01:31:04.930Z,9.08
2022-12-23T01:31:15.234Z,9.08
2022-12-23T01:31:25.545Z,9.05
2022-12-23T01:31:35.828Z,9.05
2022-12-23T01:31:46.169Z,9.08
2022-12-23T01:31:56.515Z,9.08
2022-12-23T01:32:06.910Z,9.05
2022-12-23T01:32:17.285Z,9.05
2022-12-23T01:32:27.577Z,9.08
2022-12-23T01:32:37.833Z,9.03
2022-12-23T01:32:48.105Z,9.05
2022-12-23T01:32:58.316Z,9.08
2022-12-23T01:33:08.576Z,9.08
2022-12-23T01:33:18.848Z,9.08
2022-12-23T01:33:29.164Z,9.08
2022-12-23T01:33:39.418Z,9.08
2022-12-23T01:33:49.679Z,9.03
2022-12-23T01:33:59.949Z,9.08
2022-12-23T01:34:10.291Z,9.08
2022-12-23T01:34:20.571Z,9.05
2022-12-23T01:34:36.335Z,9.08
2022-12-23T01:34:42.250Z,9.05
2022-12-23T01:34:51.650Z,9.08
2022-12-23T01:35:01.917Z,9.08
2022-12-23T01:35:12.184Z,9.08
2022-12-23T01:35:22.518Z,9.08
2022-12-23T01:35:32.805Z,9.09
2022-12-23T01:35:43.064Z,9.05
2022-12-23T01:35:53.321Z,9.05
2022-12-23T01:36:03.613Z,9.05
2022-12-23T01:36:13.849Z,9.05
2022-12-23T01:36:24.118Z,9.09
2022-12-23T01:36:34.430Z,9.05
2022-12-23T01:36:44.690Z,9.08
2022-12-23T01:36:54.970Z,9.09
2022-12-23T01:37:05.225Z,9.08
2022-12-23T01:37:15.468Z,9.08
2022-12-23T01:37:25.757Z,9.08
2022-12-23T01:37:36.001Z,9.05
2022-12-23T01:37:46.252Z,9.08
2022-12-23T01:37:56.524Z,9.08
2022-12-23T01:38:06.791Z,9.08
2022-12-23T01:38:17.047Z,9.05
2022-12-23T01:38:27.349Z,9.05
2022-12-23T01:38:37.656Z,9.05
2022-12-23T01:38:47.875Z,9.05
2022-12-23T01:38:58.143Z,9.05
2022-12-23T01:39:08.394Z,9.08
2022-12-23T01:39:18.682Z,9.08
2022-12-23T01:39:28.958Z,9.08
2022-12-23T01:39:39.216Z,9.08
2022-12-23T01:39:49.475Z,9.08
2022-12-23T01:39:59.732Z,9.09
2022-12-23T01:40:10.041Z,9.08
2022-12-23T01:40:20.291Z,9.09
2022-12-23T01:40:30.568Z,9.08
2022-12-23T01:40:40.821Z,9.08
2022-12-23T01:40:51.085Z,9.05
2022-12-23T01:41:01.364Z,9.08
2022-12-23T01:41:11.607Z,9.05
2022-12-23T01:41:21.868Z,9.05
2022-12-23T01:41:32.126Z,9.08
2022-12-23T01:41:42.383Z,9.08
2022-12-23T01:41:52.674Z,9.05
2022-12-23T01:42:02.939Z,9.05
2022-12-23T01:42:13.211Z,9.05
2022-12-23T01:42:23.500Z,9.08
2022-12-23T01:42:33.758Z,9.05
2022-12-23T01:42:44.008Z,9.05
2022-12-23T01:42:54.268Z,9.08
2022-12-23T01:43:04.550Z,9.08
2022-12-23T01:43:14.806Z,9.05
2022-12-23T01:43:25.062Z,9.05
2022-12-23T01:43:35.324Z,9.05
2022-12-23T01:43:45.774Z,9.08
2022-12-23T01:43:56.030Z,9.08
2022-12-23T01:44:06.298Z,9.08
2022-12-23T01:44:16.556Z,9.08
2022-12-23T01:44:26.838Z,9.05
2022-12-23T01:44:37.108Z,9.08
2022-12-23T01:44:47.364Z,9.08
2022-12-23T01:44:57.651Z,9.05
2022-12-23T01:45:07.891Z,9.05
2022-12-23T01:45:18.151Z,9.08
2022-12-23T01:45:28.469Z,9.05
2022-12-23T01:45:38.725Z,9.08
2022-12-23T01:45:49.066Z,9.08
2022-12-23T01:45:59.388Z,9.08
2022-12-23T01:46:09.763Z,9.08
2022-12-23T01:46:20.088Z,9.05
2022-12-23T01:46:30.502Z,9.05
2022-12-23T01:46:40.757Z,9.08
2022-12-23T01:46:51.068Z,9.05
2022-12-23T01:47:01.303Z,9.05
2022-12-23T01:47:11.553Z,9.09
2022-12-23T01:47:21.829Z,9.08
2022-12-23T01:47:32.082Z,9.08
2022-12-23T01:47:45.187Z,9.05
2022-12-23T01:47:52.660Z,9.08
2022-12-23T01:48:02.906Z,9.02
2022-12-23T01:48:13.173Z,9.03
2022-12-23T01:48:23.481Z,9.08
2022-12-23T01:48:33.722Z,9.05
2022-12-23T01:48:43.996Z,9.05
2022-12-23T01:48:54.249Z,9.05
2022-12-23T01:49:04.512Z,9.05
2022-12-23T01:49:14.771Z,9.05
2022-12-23T01:49:25.034Z,9.05
2022-12-23T01:49:35.328Z,9.03
2022-12-23T01:49:45.565Z,9.03
2022-12-23T01:49:55.823Z,9.08
2022-12-23T01:50:06.079Z,9.08
2022-12-23T01:50:16.344Z,9.03
2022-12-23T01:50:26.616Z,9.05
2022-12-23T01:50:36.916Z,9.05
2022-12-23T01:50:47.160Z,9.03
2022-12-23T01:50:57.439Z,9.08
2022-12-23T01:51:07.716Z,9.05
2022-12-23T01:51:18.005Z,9.05
2022-12-23T01:51:28.224Z,9.05
2022-12-23T01:51:38.488Z,9.03
2022-12-23T01:51:48.780Z,9.05
2022-12-23T01:51:59.029Z,9.05
2022-12-23T01:52:09.294Z,9.05
2022-12-23T01:52:19.557Z,9.05
2022-12-23T01:52:29.819Z,9.05
2022-12-23T01:52:40.090Z,9.08
2022-12-23T01:52:50.373Z,9.05
2022-12-23T01:53:06.829Z,9.03
2022-12-23T01:53:12.045Z,9.08
2022-12-23T01:53:21.453Z,9.05
2022-12-23T01:53:31.712Z,9.08
2022-12-23T01:53:41.981Z,9.08
2022-12-23T01:53:52.293Z,9.08
2022-12-23T01:54:02.535Z,9.05
2022-12-23T01:54:12.800Z,9.08
2022-12-23T01:54:23.077Z,9.05
2022-12-23T01:54:33.328Z,9.05
2022-12-23T01:54:43.582Z,9.03
2022-12-23T01:54:53.876Z,9.05
2022-12-23T01:55:04.119Z,9.08
2022-12-23T01:55:14.410Z,9.03
2022-12-23T01:55:24.657Z,9.05
2022-12-23T01:55:34.927Z,9.08
2022-12-23T01:55:45.170Z,9.05
2022-12-23T01:55:55.454Z,9.05
2022-12-23T01:56:05.734Z,9.08
2022-12-23T01:56:15.976Z,9.05
2022-12-23T01:56:26.247Z,9.05
2022-12-23T01:56:36.517Z,9.03
2022-12-23T01:56:46.783Z,9.03
2022-12-23T01:56:57.038Z,9.05
2022-12-23T01:57:07.311Z,9.05
2022-12-23T01:57:17.574Z,9.05
2022-12-23T01:57:27.838Z,9.05
2022-12-23T01:57:38.112Z,9.05
2022-12-23T01:57:48.364Z,9.05
2022-12-23T01:57:58.652Z,9.05
2022-12-23T01:58:08.922Z,9.03
2022-12-23T01:58:19.193Z,9.05
2022-12-23T01:58:29.441Z,9.05
2022-12-23T01:58:39.704Z,9.03
2022-12-23T01:58:49.976Z,9.08
2022-12-23T01:59:00.268Z,9.03
2022-12-23T01:59:10.534Z,9.05
2022-12-23T01:59:20.799Z,9.08
2022-12-23T01:59:31.075Z,9.05
2022-12-23T01:59:41.351Z,9.08
2022-12-23T01:59:51.610Z,9.05
2022-12-23T02:00:01.873Z,9.08
2022-12-23T02:00:12.169Z,9.03
2022-12-23T02:00:22.428Z,9.05
2022-12-23T02:00:32.708Z,9.05
2022-12-23T02:00:42.997Z,9.05
2022-12-23T02:00:53.252Z,9.03
2022-12-23T02:01:03.567Z,9.05
2022-12-23T02:01:13.908Z,9.05
2022-12-23T02:01:24.243Z,9.05
2022-12-23T02:01:34.650Z,9.03
2022-12-23T02:01:44.933Z,9.05
2022-12-23T02:01:55.180Z,9.02
2022-12-23T02:02:05.561Z,9.05
2022-12-23T02:02:15.908Z,9.05
2022-12-23T02:02:26.162Z,9.05
2022-12-23T02:02:36.311Z,9.02
2022-12-23T02:02:46.649Z,9.03
2022-12-23T02:02:57.279Z,9.05
2022-12-23T02:03:07.307Z,9.05
2022-12-23T02:03:17.660Z,9.03
2022-12-23T02:03:28.042Z,9.03
2022-12-23T02:03:38.384Z,9.05
2022-12-23T02:03:48.678Z,9.05
2022-12-23T02:03:58.958Z,9.05
2022-12-23T02:04:09.241Z,9.05
2022-12-23T02:04:19.482Z,9.03
2022-12-23T02:04:29.745Z,9.05
2022-12-23T02:04:40.009Z,9.03
2022-12-23T02:04:50.295Z,9.03
2022-12-23T02:05:00.551Z,9.03
2022-12-23T02:05:10.808Z,9.02
2022-12-23T02:05:21.074Z,9.02
2022-12-23T02:05:31.327Z,9.05
2022-12-23T02:05:41.605Z,9.03
2022-12-23T02:05:51.877Z,9.03
2022-12-23T02:06:02.149Z,9.05
2022-12-23T02:06:12.417Z,9.03
2022-12-23T02:06:22.693Z,9.03
2022-12-23T02:06:32.973Z,9.03
2022-12-23T02:06:43.221Z,9.02
2022-12-23T02:06:53.491Z,9.02
2022-12-23T02:07:03.760Z,9.03
2022-12-23T02:07:14.022Z,9.03
2022-12-23T02:07:24.309Z,9.05
2022-12-23T02:07:34.564Z,9.03
2022-12-23T02:07:44.824Z,9.05
2022-12-23T02:07:55.095Z,9.05
2022-12-23T02:08:05.349Z,9.02
2022-12-23T02:08:15.605Z,9.03
2022-12-23T02:08:25.880Z,9.03
2022-12-23T02:08:36.195Z,9.03
2022-12-23T02:08:46.462Z,9.03
2022-12-23T02:08:56.728Z,9.03
2022-12-23T02:09:06.978Z,9.02
2022-12-23T02:09:17.248Z,9.03
2022-12-23T02:09:27.538Z,9.00
2022-12-23T02:09:37.805Z,9.05
2022-12-23T02:09:48.041Z,9.05
2022-12-23T02:09:58.324Z,9.02
2022-12-23T02:10:08.573Z,9.03
2022-12-23T02:10:18.851Z,9.02
2022-12-23T02:10:29.123Z,9.02
2022-12-23T02:10:39.387Z,9.03
2022-12-23T02:10:49.634Z,9.02
2022-12-23T02:10:59.899Z,9.02
2022-12-23T02:11:10.174Z,9.03
2022-12-23T02:11:20.438Z,9.03
2022-12-23T02:11:30.722Z,9.03
2022-12-23T02:11:40.966Z,9.02
2022-12-23T02:11:51.267Z,9.02
2022-12-23T02:12:01.540Z,9.02
2022-12-23T02:12:11.775Z,9.02
2022-12-23T02:12:22.073Z,9.02
2022-12-23T02:12:32.314Z,9.03
2022-12-23T02:12:42.583Z,9.03
2022-12-23T02:12:52.870Z,9.03
2022-12-23T02:13:03.109Z,9.02
2022-12-23T02:13:13.373Z,9.03
2022-12-23T02:13:23.655Z,9.02
2022-12-23T02:13:33.893Z,9.02
2022-12-23T02:13:44.160Z,9.02
2022-12-23T02:13:54.443Z,9.03
2022-12-23T02:14:04.702Z,9.02
2022-12-23T02:14:14.976Z,9.03
2022-12-23T02:14:25.241Z,9.05
2022-12-23T02:14:35.530Z,9.02
2022-12-23T02:14:45.802Z,9.02
2022-12-23T02:14:56.068Z,9.03
2022-12-23T02:15:06.328Z,9.02
2022-12-23T02:15:16.618Z,9.02
2022-12-23T02:15:26.875Z,9.03
2022-12-23T02:15:37.125Z,9.03
2022-12-23T02:15:47.473Z,9.02
2022-12-23T02:15:57.747Z,9.00
2022-12-23T02:16:08.009Z,9.02
2022-12-23T02:16:18.402Z,9.02
2022-12-23T02:16:28.781Z,9.02
2022-12-23T02:16:39.175Z,9.03
2022-12-23T02:16:49.501Z,9.03